Terminal Aerodrome Forecast
Issued by NWS Newport/Morehead City, NC

Home | Current Version | Previous Version | Text Only | Print | Product List | Glossary On
Versions: 1 2 3 4 5 6 7 8 9 10 11 12 13 14 15 16 17 18 19 20 21
221
FTUS42 KMHX 212118 AAA
TAFEWN
TAF AMD
KEWN 212118Z 2121/2218 14006KT P6SM SCT007 BKN050
     FM220000 VRB04KT 3SM -SHRA BR OVC007
     FM220200 18005KT 3SM -SHRA BR OVC003
     FM220500 20006KT 2SM BR OVC003
     FM221300 20005KT 3SM SHRA VCTS OVC007CB=

USA.gov is the U.S. government's official web portal to all federal, state and local government web resources and services.